Time;durP1;ratioP1;P1;durP2;ratioP2;P2;SDS_P1;SDS_P2;PMS_P1;PMS_P2;Temp;Humidity;BMP_temperature;BMP_pressure;BME280_temperature;BME280_humidity;BME280_pressure;Samples;Min_cycle;Max_cycle;Signal;HPM_P1;HPM_P2
2023/07/28 00:00:36;;;;;;;3.83;2.97;;;;;;;18.11;100.00;92261.81;5013889;28;20022;-62
2023/07/28 00:03:01;;;;;;;3.60;2.70;;;;;;;18.10;100.00;92244.25;5013437;28;20053;-62
2023/07/28 00:05:27;;;;;;;2.70;2.60;;;;;;;18.10;100.00;92244.25;5047631;28;20048;-62
2023/07/28 00:07:52;;;;;;;3.13;2.83;;;;;;;18.11;100.00;92272.44;5006555;28;20029;-62
2023/07/28 00:10:18;;;;;;;2.78;2.58;;;;;;;18.13;100.00;92287.09;5008531;28;20029;-62
2023/07/28 00:12:43;;;;;;;3.78;2.65;;;;;;;18.10;100.00;92276.19;5014770;28;20030;-62
2023/07/28 00:15:09;;;;;;;5.47;2.70;;;;;;;18.03;100.00;92265.81;5009224;28;20053;-62
2023/07/28 00:17:34;;;;;;;4.40;3.00;;;;;;;17.93;100.00;92244.56;5012506;28;20410;-62
2023/07/28 00:20:00;;;;;;;6.70;3.15;;;;;;;17.88;100.00;92208.09;5013486;28;20129;-62
2023/07/28 00:22:25;;;;;;;4.57;2.90;;;;;;;17.89;100.00;92199.84;5012887;28;20057;-62
2023/07/28 00:24:50;;;;;;;4.30;3.13;;;;;;;17.90;100.00;92206.78;5013831;28;20045;-62
2023/07/28 00:27:16;;;;;;;4.20;2.72;;;;;;;17.89;100.00;92213.13;5020351;28;20046;-62
2023/07/28 00:29:41;;;;;;;3.13;2.92;;;;;;;17.90;100.00;92212.09;5013025;28;20046;-62
2023/07/28 00:32:07;;;;;;;3.00;2.80;;;;;;;17.92;100.00;92211.03;5010804;28;20391;-63
2023/07/28 00:34:33;;;;;;;3.33;2.97;;;;;;;17.90;100.00;92213.94;5010850;28;20456;-62
2023/07/28 00:36:58;;;;;;;5.40;2.67;;;;;;;17.93;100.00;92216.06;5011906;28;20512;-62
2023/07/28 00:39:23;;;;;;;3.15;2.90;;;;;;;17.94;100.00;92216.88;5019466;28;20045;-62
2023/07/28 00:41:49;;;;;;;3.55;3.25;;;;;;;17.98;100.00;92224.03;5011137;28;20045;-64
2023/07/28 00:44:16;;;;;;;3.90;2.92;;;;;;;18.03;100.00;92234.69;5013140;28;20049;-63
2023/07/28 00:46:42;;;;;;;3.03;2.83;;;;;;;18.09;100.00;92232.00;5014752;28;20026;-62
2023/07/28 00:49:08;;;;;;;3.20;2.80;;;;;;;18.10;100.00;92249.56;5017444;28;20529;-62
2023/07/28 00:51:35;;;;;;;3.30;3.00;;;;;;;18.08;100.00;92265.00;5018983;28;20498;-62
2023/07/28 00:54:01;;;;;;;3.42;2.85;;;;;;;18.02;100.00;92245.59;5015583;28;20053;-62
2023/07/28 00:56:27;;;;;;;2.80;2.60;;;;;;;17.95;100.00;92232.56;5014978;28;20018;-64
2023/07/28 00:58:53;;;;;;;5.82;3.10;;;;;;;17.91;100.00;92215.53;5012337;28;20022;-64
2023/07/28 01:01:18;;;;;;;3.50;2.90;;;;;;;17.90;100.00;92198.81;5013053;28;20077;-62
2023/07/28 01:03:44;;;;;;;3.50;2.78;;;;;;;17.91;100.00;92186.28;5012861;28;20099;-62
2023/07/28 01:06:27;;;;;;;3.00;2.80;;;;;;;17.93;100.00;92194.78;5008099;28;20022;-64
2023/07/28 01:09:01;;;;;;;3.03;2.83;;;;;;;17.91;100.00;92191.59;5008215;28;20395;-65
2023/07/28 01:11:26;;;;;;;4.15;2.92;;;;;;;17.93;100.00;92197.44;5012128;28;20457;-62
2023/07/28 01:13:52;;;;;;;3.25;3.00;;;;;;;17.92;100.00;92203.06;5013164;28;20029;-62
2023/07/28 01:16:17;;;;;;;4.55;3.70;;;;;;;17.90;100.00;92229.91;5011015;28;20056;-64
2023/07/28 01:18:43;;;;;;;3.10;2.90;;;;;;;17.86;100.00;92269.56;5013668;28;20121;-64
2023/07/28 01:21:13;;;;;;;3.22;3.03;;;;;;;17.81;100.00;92268.81;5015229;28;20033;-62
2023/07/28 01:24:12;;;;;;;3.33;2.90;;;;;;;17.75;100.00;92314.03;5013376;28;20505;-62
2023/07/28 01:26:39;;;;;;;2.85;2.65;;;;;;;17.72;100.00;92319.09;5011460;28;20084;-62
2023/07/28 01:29:05;;;;;;;2.78;2.63;;;;;;;17.67;100.00;92301.28;5014427;28;20057;-64
2023/07/28 01:31:31;;;;;;;3.55;3.08;;;;;;;17.70;100.00;92289.31;5014010;28;20028;-62
2023/07/28 01:33:56;;;;;;;4.03;2.80;;;;;;;17.72;100.00;92297.81;5017644;28;20129;-62
2023/07/28 01:36:22;;;;;;;2.65;2.53;;;;;;;17.72;100.00;92314.56;5006383;28;20037;-62
2023/07/28 01:38:47;;;;;;;3.35;3.03;;;;;;;17.76;100.00;92325.47;5005392;28;20018;-62
2023/07/28 01:41:13;;;;;;;3.22;2.72;;;;;;;17.72;100.00;92341.16;5012621;28;20025;-64
2023/07/28 01:43:38;;;;;;;3.55;2.40;;;;;;;17.65;100.00;92351.28;5004277;28;20037;-62
2023/07/28 01:46:04;;;;;;;2.85;2.60;;;;;;;17.61;100.00;92336.94;5011409;28;20018;-62
2023/07/28 01:48:29;;;;;;;3.70;3.38;;;;;;;17.60;100.00;92344.09;4984051;28;20163;-63
2023/07/28 01:50:55;;;;;;;3.58;2.80;;;;;;;17.56;100.00;92361.66;5023674;28;20034;-62
2023/07/28 01:53:21;;;;;;;6.47;3.15;;;;;;;17.50;100.00;92353.94;5013970;28;20076;-62
2023/07/28 01:55:46;;;;;;;3.13;2.75;;;;;;;17.43;100.00;92304.50;5007825;28;20026;-62
2023/07/28 01:58:12;;;;;;;3.10;2.80;;;;;;;17.37;100.00;92288.81;5013751;28;20018;-62
2023/07/28 02:00:37;;;;;;;4.20;2.70;;;;;;;17.25;100.00;92265.97;5016199;28;20145;-62
2023/07/28 02:03:03;;;;;;;5.18;2.92;;;;;;;17.20;100.00;92241.25;5006300;28;20026;-64
2023/07/28 02:05:29;;;;;;;3.03;2.83;;;;;;;17.10;100.00;92210.97;5006780;28;20049;-64
2023/07/28 02:07:55;;;;;;;3.10;2.90;;;;;;;16.96;100.00;92183.31;5001320;28;20037;-62
2023/07/28 02:10:28;;;;;;;3.17;2.88;;;;;;;16.89;100.00;92155.16;5007450;28;20164;-62
2023/07/28 02:12:54;;;;;;;2.92;2.72;;;;;;;16.86;100.00;92134.44;5005329;28;20022;-64
2023/07/28 02:15:19;;;;;;;4.32;3.10;;;;;;;16.83;100.00;92124.34;5010642;28;20029;-64
2023/07/28 02:17:44;;;;;;;3.10;2.80;;;;;;;16.81;100.00;92112.44;5012350;28;20108;-65
2023/07/28 02:20:15;;;;;;;3.47;3.17;;;;;;;16.77;100.00;92101.53;5006681;28;20038;-62
2023/07/28 02:22:40;;;;;;;3.50;3.22;;;;;;;16.74;100.00;92092.22;5011349;28;20057;-64
2023/07/28 02:25:06;;;;;;;5.68;3.03;;;;;;;16.68;100.00;92073.91;5012687;28;20069;-64
2023/07/28 02:27:32;;;;;;;2.92;2.72;;;;;;;16.71;100.00;92049.50;5008847;28;20074;-62
2023/07/28 02:29:57;;;;;;;3.20;2.97;;;;;;;16.70;100.00;92061.97;5011244;28;20085;-64
2023/07/28 02:32:23;;;;;;;3.53;3.28;;;;;;;16.64;100.00;92056.94;5010381;28;20029;-62
2023/07/28 02:34:48;;;;;;;7.60;3.08;;;;;;;16.57;100.00;92054.53;4988064;28;20022;-64
2023/07/28 02:37:15;;;;;;;6.65;2.88;;;;;;;16.46;100.00;92035.19;5012388;28;20565;-62
2023/07/28 02:39:41;;;;;;;3.47;3.20;;;;;;;16.45;100.00;92007.03;5004169;28;20034;-64
2023/07/28 02:42:06;;;;;;;5.85;2.97;;;;;;;16.48;100.00;91985.28;5000712;28;20075;-64
2023/07/28 02:44:32;;;;;;;2.92;2.72;;;;;;;16.54;100.00;91983.41;4994111;28;20032;-64
2023/07/28 02:46:57;;;;;;;3.13;2.92;;;;;;;16.54;100.00;91981.56;5005473;28;20037;-64
2023/07/28 02:49:22;;;;;;;3.10;2.90;;;;;;;16.57;100.00;91991.63;5011857;28;20026;-62
2023/07/28 02:51:48;;;;;;;3.72;2.80;;;;;;;16.60;100.00;91982.34;5009338;28;20037;-64
2023/07/28 02:54:13;;;;;;;3.42;3.13;;;;;;;16.59;100.00;91981.53;5004234;28;20065;-62
2023/07/28 02:56:39;;;;;;;3.97;3.08;;;;;;;16.58;100.00;91979.94;5012572;28;20034;-62
2023/07/28 02:59:05;;;;;;;2.75;2.55;;;;;;;16.58;100.00;91985.25;5001594;28;20030;-64
2023/07/28 03:01:34;;;;;;;4.78;3.13;;;;;;;16.60;100.00;91996.41;5012838;28;20025;-62
2023/07/28 03:04:01;;;;;;;5.72;3.20;;;;;;;16.54;100.00;92012.59;5009916;28;20557;-64
2023/07/28 03:06:26;;;;;;;2.88;2.65;;;;;;;16.51;100.00;92021.91;5008900;28;20057;-64
2023/07/28 03:08:52;;;;;;;4.70;3.10;;;;;;;16.47;100.00;92029.63;5011283;28;20046;-64
2023/07/28 03:11:17;;;;;;;3.05;2.85;;;;;;;16.47;100.00;92026.19;5008642;28;20072;-64
2023/07/28 03:13:43;;;;;;;3.25;2.95;;;;;;;16.39;100.00;92040.78;5012038;28;20080;-64
2023/07/28 03:16:08;;;;;;;2.95;2.70;;;;;;;16.34;100.00;92032.81;5011460;28;20053;-64
2023/07/28 03:18:33;;;;;;;3.20;3.00;;;;;;;16.38;100.00;92020.63;5011035;28;20306;-64
2023/07/28 03:20:59;;;;;;;3.10;2.80;;;;;;;16.37;100.00;92013.72;5010466;28;20033;-64
2023/07/28 03:23:24;;;;;;;3.72;3.10;;;;;;;16.24;100.00;92038.91;5011952;28;20516;-64
2023/07/28 03:25:49;;;;;;;4.63;2.80;;;;;;;16.14;100.00;92042.41;5008646;28;20551;-64
2023/07/28 03:28:15;;;;;;;4.35;3.10;;;;;;;16.24;100.00;92022.22;5005010;28;20133;-64
2023/07/28 03:30:40;;;;;;;4.45;3.10;;;;;;;16.26;100.00;92036.81;5037616;28;20018;-64
2023/07/28 03:33:06;;;;;;;3.00;2.80;;;;;;;16.31;100.00;92043.97;5005181;28;20021;-64
2023/07/28 03:35:31;;;;;;;3.17;2.88;;;;;;;16.30;100.00;92051.13;5011320;28;20041;-64
2023/07/28 03:37:56;;;;;;;6.38;2.72;;;;;;;16.29;100.00;92064.66;5008513;28;20046;-64
2023/07/28 03:40:22;;;;;;;3.20;2.70;;;;;;;16.28;100.00;92066.53;5011563;28;20800;-64
2023/07/28 03:42:47;;;;;;;3.42;3.13;;;;;;;16.26;100.00;92052.75;4992577;28;20546;-64
2023/07/28 03:45:13;;;;;;;2.95;2.78;;;;;;;16.27;100.00;92050.88;5012458;28;20502;-64
2023/07/28 03:47:39;;;;;;;4.45;3.50;;;;;;;16.29;100.00;92048.75;5012283;28;20022;-64
2023/07/28 03:50:05;;;;;;;3.22;3.00;;;;;;;16.29;100.00;92070.78;5014593;28;20060;-64
2023/07/28 03:52:31;;;;;;;3.75;3.13;;;;;;;16.24;100.00;92088.56;5009811;28;20479;-64
2023/07/28 03:54:56;;;;;;;4.18;3.22;;;;;;;16.23;100.00;92077.13;5009445;28;20022;-64
2023/07/28 03:57:21;;;;;;;4.03;2.70;;;;;;;16.32;100.00;92064.94;5012871;28;20030;-64
2023/07/28 03:59:47;;;;;;;4.85;2.92;;;;;;;16.39;100.00;92072.63;5011550;28;20037;-64
2023/07/28 04:02:12;;;;;;;3.05;2.85;;;;;;;16.43;100.00;92100.25;5012690;28;20042;-64
2023/07/28 04:04:38;;;;;;;4.75;3.03;;;;;;;16.47;100.00;92122.53;5007898;28;20816;-64
2023/07/28 04:07:03;;;;;;;8.43;3.33;;;;;;;16.50;100.00;92131.03;5016033;28;20399;-64
2023/07/28 04:09:29;;;;;;;7.30;3.45;;;;;;;16.50;100.00;92157.56;5026635;28;20049;-64
2023/07/28 04:11:54;;;;;;;3.17;2.97;;;;;;;16.51;100.00;92172.44;5015871;28;20033;-64
2023/07/28 04:14:20;;;;;;;3.30;2.53;;;;;;;16.54;100.00;92174.56;5014613;28;20052;-64
2023/07/28 04:16:45;;;;;;;3.20;3.00;;;;;;;16.53;100.00;92178.28;5005126;28;20038;-64
2023/07/28 04:19:11;;;;;;;3.17;2.88;;;;;;;16.52;100.00;92180.16;5007969;28;20038;-64
2023/07/28 04:21:39;;;;;;;3.20;2.83;;;;;;;16.56;100.00;92193.66;5012266;28;20030;-64
2023/07/28 04:24:07;;;;;;;2.70;2.50;;;;;;;16.59;100.00;92201.91;5011019;28;20053;-64
2023/07/28 04:26:32;;;;;;;3.50;2.60;;;;;;;16.53;100.00;92216.25;5011488;28;20060;-64
2023/07/28 04:28:57;;;;;;;3.53;2.95;;;;;;;16.58;100.00;92221.56;5014453;28;20384;-64
2023/07/28 04:31:23;;;;;;;3.05;2.72;;;;;;;16.63;100.00;92228.75;5011568;28;20037;-65
2023/07/28 04:33:48;;;;;;;3.00;2.80;;;;;;;16.67;100.00;92227.16;5013466;28;20067;-64
2023/07/28 04:36:13;;;;;;;3.03;2.83;;;;;;;16.73;100.00;92246.56;5015186;28;20034;-64
2023/07/28 04:38:39;;;;;;;3.13;2.80;;;;;;;16.76;100.00;92262.72;5008929;28;20112;-64
2023/07/28 04:41:04;;;;;;;3.15;2.60;;;;;;;16.83;100.00;92275.75;5004192;28;20483;-64
2023/07/28 04:43:29;;;;;;;3.05;2.75;;;;;;;16.85;100.00;92291.44;5006291;28;20034;-64
2023/07/28 04:45:55;;;;;;;5.45;3.42;;;;;;;16.86;100.00;92288.50;5011581;28;20034;-64
2023/07/28 04:48:21;;;;;;;7.68;3.00;;;;;;;16.82;100.00;92290.09;5013584;28;20037;-65
2023/07/28 04:50:46;;;;;;;2.97;2.70;;;;;;;16.84;100.00;92311.09;5022722;28;20018;-64
2023/07/28 04:53:11;;;;;;;3.22;2.92;;;;;;;16.85;100.00;92302.06;4976043;28;20093;-65
2023/07/28 04:55:37;;;;;;;3.47;3.22;;;;;;;16.87;100.00;92310.56;5014354;28;20084;-64
2023/07/28 04:58:02;;;;;;;3.70;2.70;;;;;;;16.87;100.00;92294.63;5011638;28;20049;-64
2023/07/28 05:00:28;;;;;;;3.15;2.90;;;;;;;16.85;100.00;92265.66;5015817;28;20057;-65
2023/07/28 05:02:54;;;;;;;2.92;2.72;;;;;;;16.84;100.00;92245.47;5013998;28;20628;-64
2023/07/28 05:05:19;;;;;;;4.00;3.10;;;;;;;16.84;100.00;92237.50;5014644;28;20037;-64
2023/07/28 05:07:44;;;;;;;3.92;3.03;;;;;;;16.84;100.00;92141.88;5013194;28;20049;-64
2023/07/28 05:10:10;;;;;;;3.50;3.20;;;;;;;16.85;100.00;92111.59;5012016;28;20431;-64
2023/07/28 05:12:35;;;;;;;3.55;3.10;;;;;;;16.86;100.00;92105.22;5020221;28;20018;-64
2023/07/28 05:15:01;;;;;;;2.88;2.67;;;;;;;16.94;100.00;92081.84;5012689;28;20406;-65
2023/07/28 05:17:26;;;;;;;3.60;3.30;;;;;;;16.98;100.00;92074.91;5015544;28;20029;-64
2023/07/28 05:19:52;;;;;;;3.38;3.00;;;;;;;16.99;100.00;92127.03;5011083;28;20117;-64
2023/07/28 05:22:17;;;;;;;3.28;2.80;;;;;;;17.07;100.00;92125.69;5007050;28;20048;-64
2023/07/28 05:24:44;;;;;;;3.42;3.20;;;;;;;17.02;100.00;92137.09;5013492;28;20399;-64
2023/07/28 05:27:10;;;;;;;6.25;2.83;;;;;;;17.03;100.00;92163.44;5011790;28;20054;-64
2023/07/28 05:29:35;;;;;;;3.35;3.10;;;;;;;17.01;100.00;92192.09;5013342;28;20021;-64
2023/07/28 05:32:01;;;;;;;3.90;3.25;;;;;;;17.01;100.00;92201.94;5011937;28;20043;-64
2023/07/28 05:34:27;;;;;;;3.72;3.30;;;;;;;17.06;100.00;92195.84;5010808;28;20030;-64
2023/07/28 05:36:52;;;;;;;3.50;3.05;;;;;;;17.08;100.00;92186.50;5012078;28;20037;-64
2023/07/28 05:39:17;;;;;;;7.88;3.72;;;;;;;17.13;100.00;92165.28;5009860;28;20091;-64
2023/07/28 05:41:43;;;;;;;4.57;3.00;;;;;;;17.22;100.00;92162.84;5014149;28;20112;-64
2023/07/28 05:44:08;;;;;;;4.85;3.22;;;;;;;17.30;100.00;92177.44;5014361;28;20039;-64
2023/07/28 05:46:34;;;;;;;5.82;3.45;;;;;;;17.33;100.00;92195.50;5014758;28;20042;-64
2023/07/28 05:48:59;;;;;;;3.47;3.22;;;;;;;17.39;100.00;92228.19;5015086;28;20057;-64
2023/07/28 05:51:25;;;;;;;4.65;3.00;;;;;;;17.42;100.00;92264.88;5013566;28;20026;-65
2023/07/28 05:53:50;;;;;;;3.85;3.35;;;;;;;17.46;100.00;92301.31;5013993;28;20030;-65
2023/07/28 05:56:16;;;;;;;3.00;2.80;;;;;;;17.52;100.00;92311.94;5006258;28;20034;-64
2023/07/28 05:58:41;;;;;;;3.33;2.88;;;;;;;17.59;100.00;92307.16;5013676;28;20041;-64
2023/07/28 06:01:07;;;;;;;4.15;2.80;;;;;;;17.74;100.00;92272.53;5006564;28;20044;-64
2023/07/28 06:03:32;;;;;;;7.88;3.03;;;;;;;18.00;100.00;92256.47;5014400;28;20076;-64
2023/07/28 06:05:58;;;;;;;2.80;2.58;;;;;;;18.36;100.00;92310.69;5014581;28;20486;-64
2023/07/28 06:08:23;;;;;;;5.80;3.05;;;;;;;18.57;100.00;92384.09;5014480;28;20463;-64
2023/07/28 06:10:49;;;;;;;4.63;2.80;;;;;;;18.74;100.00;92449.56;5014017;28;20535;-64
2023/07/28 06:13:14;;;;;;;4.80;2.70;;;;;;;18.89;100.00;92489.47;5014145;28;20036;-64
2023/07/28 06:15:42;;;;;;;4.60;2.70;;;;;;;18.99;100.00;92514.53;5014438;28;20041;-62
2023/07/28 06:18:07;;;;;;;3.05;2.75;;;;;;;19.01;100.00;92531.88;5013972;28;20022;-62
2023/07/28 06:20:34;;;;;;;3.67;2.55;;;;;;;19.02;100.00;92553.97;5013640;28;20414;-62
2023/07/28 06:23:00;;;;;;;4.45;2.75;;;;;;;18.98;100.00;92577.69;5009694;28;20033;-62
2023/07/28 06:25:25;;;;;;;2.42;2.22;;;;;;;19.01;100.00;92600.38;5011774;28;20188;-62
2023/07/28 06:27:50;;;;;;;5.10;2.65;;;;;;;19.00;100.00;92620.88;5012279;28;20115;-62
2023/07/28 06:30:16;;;;;;;7.32;2.85;;;;;;;19.01;100.00;92621.69;5044823;28;20025;-62
2023/07/28 06:32:41;;;;;;;4.15;2.63;;;;;;;18.99;100.00;92626.50;5014514;28;20021;-63
2023/07/28 06:35:07;;;;;;;3.35;2.42;;;;;;;18.98;100.00;92631.00;5011399;28;20030;-62
2023/07/28 06:37:33;;;;;;;6.90;3.10;;;;;;;18.99;100.00;92605.94;5010515;28;20034;-63
2023/07/28 06:39:59;;;;;;;3.85;2.65;;;;;;;19.02;100.00;92585.97;5012696;28;20034;-62
2023/07/28 06:42:25;;;;;;;3.00;2.67;;;;;;;19.13;100.00;92578.72;5044750;28;20490;-62
2023/07/28 06:44:51;;;;;;;3.30;3.00;;;;;;;19.23;100.00;92564.56;5012526;28;20041;-63
2023/07/28 06:47:17;;;;;;;3.83;3.20;;;;;;;19.38;100.00;92569.03;5012700;28;20033;-62
2023/07/28 06:49:42;;;;;;;3.95;2.83;;;;;;;19.49;100.00;92575.13;5013874;28;20029;-63
2023/07/28 06:52:08;;;;;;;4.65;2.95;;;;;;;19.57;100.00;92598.59;5012513;28;20068;-62
2023/07/28 06:54:34;;;;;;;9.52;2.92;;;;;;;19.67;100.00;92608.41;5002916;28;20059;-62
2023/07/28 06:56:59;;;;;;;4.30;3.30;;;;;;;19.69;100.00;92617.72;5012689;28;20358;-63
2023/07/28 06:59:25;;;;;;;5.13;3.60;;;;;;;19.59;100.00;92621.25;5013107;28;20069;-63
2023/07/28 07:01:50;;;;;;;7.55;3.72;;;;;;;19.50;100.00;92619.41;5003002;28;20069;-62
2023/07/28 07:04:16;;;;;;;6.20;3.13;;;;;;;19.42;100.00;92607.44;5011326;28;20040;-63
2023/07/28 07:06:41;;;;;;;7.60;4.13;;;;;;;19.40;100.00;92596.25;5013209;28;20033;-62
2023/07/28 07:09:07;;;;;;;5.00;3.25;;;;;;;19.32;100.00;92594.94;4985553;28;20041;-62
2023/07/28 07:11:33;;;;;;;4.65;2.95;;;;;;;19.25;100.00;92589.09;5012731;28;20053;-62
2023/07/28 07:13:58;;;;;;;3.65;3.17;;;;;;;19.20;100.00;92581.13;5013687;28;20026;-62
2023/07/28 07:16:24;;;;;;;4.50;3.40;;;;;;;19.14;100.00;92580.34;5013113;28;20549;-62
2023/07/28 07:18:51;;;;;;;3.60;3.22;;;;;;;19.10;100.00;92569.41;5013317;28;20077;-62
2023/07/28 07:21:16;;;;;;;6.35;3.80;;;;;;;19.13;100.00;92552.88;5011374;28;20095;-62
2023/07/28 07:23:42;;;;;;;4.60;3.70;;;;;;;19.27;100.00;92526.44;5008769;28;20029;-63
2023/07/28 07:26:07;;;;;;;3.70;3.40;;;;;;;19.41;100.00;92513.28;5014122;28;20099;-63
2023/07/28 07:28:35;;;;;;;4.38;3.17;;;;;;;19.50;100.00;92526.03;5006655;28;20029;-62
2023/07/28 07:31:00;;;;;;;6.47;3.00;;;;;;;19.53;100.00;92554.84;5009760;28;20121;-63
2023/07/28 07:33:26;;;;;;;3.17;2.90;;;;;;;19.66;100.00;92551.56;5012062;28;20069;-63
2023/07/28 07:35:51;;;;;;;3.28;2.97;;;;;;;19.80;100.00;92550.97;5011677;28;20026;-62
2023/07/28 07:38:16;;;;;;;4.63;3.53;;;;;;;19.93;100.00;92566.38;5014056;28;20120;-63
2023/07/28 07:40:42;;;;;;;5.82;3.33;;;;;;;19.82;100.00;92589.63;5016026;28;20029;-63
2023/07/28 07:43:07;;;;;;;4.28;3.47;;;;;;;19.74;100.00;92601.69;5016254;28;20062;-63
2023/07/28 07:45:33;;;;;;;4.40;3.75;;;;;;;19.79;100.00;92618.78;5013337;28;20474;-63
2023/07/28 07:47:59;;;;;;;8.13;4.65;;;;;;;19.83;100.00;92644.63;5015958;28;20358;-62
2023/07/28 07:50:25;;;;;;;5.85;3.47;;;;;;;19.82;100.00;92636.91;5008795;28;20426;-63
2023/07/28 07:52:50;;;;;;;5.25;3.08;;;;;;;19.75;100.00;92667.34;5047783;28;20049;-63
2023/07/28 07:55:15;;;;;;;4.35;3.50;;;;;;;19.74;100.00;92663.06;5010823;28;20033;-63
2023/07/28 07:57:41;;;;;;;3.33;3.05;;;;;;;20.26;100.00;92606.78;5018588;28;20519;-63
2023/07/28 08:00:08;;;;;;;4.95;3.35;;;;;;;21.11;100.00;92531.75;5015561;28;20026;-62
2023/07/28 08:02:34;;;;;;;3.92;2.92;;;;;;;21.63;100.00;92576.59;5018902;28;20561;-62
2023/07/28 08:04:59;;;;;;;5.65;3.60;;;;;;;21.75;100.00;92646.59;5006720;28;20029;-63
2023/07/28 08:07:25;;;;;;;6.60;3.85;;;;;;;21.85;100.00;92682.38;5029498;28;20418;-63
2023/07/28 08:09:50;;;;;;;3.03;2.80;;;;;;;21.75;100.00;92740.28;5015120;28;20538;-63
2023/07/28 08:12:16;;;;;;;4.13;3.05;;;;;;;21.66;100.00;92776.00;5015724;28;20065;-63
2023/07/28 08:14:42;;;;;;;4.72;2.50;;;;;;;21.79;100.00;92788.72;5013579;28;20080;-63
2023/07/28 08:17:08;;;;;;;5.50;2.92;;;;;;;21.62;100.00;92818.56;5015267;28;20053;-63
2023/07/28 08:19:34;;;;;;;3.53;2.60;;;;;;;21.64;100.00;92783.47;5046391;28;20045;-63
2023/07/28 08:21:59;;;;;;;3.25;2.95;;;;;;;21.98;100.00;92756.66;5016163;28;20030;-63
2023/07/28 08:24:25;;;;;;;5.50;3.08;;;;;;;22.07;100.00;92721.22;5014400;28;20788;-63
2023/07/28 08:26:50;;;;;;;2.88;2.63;;;;;;;22.01;100.00;92766.00;5014490;28;20099;-63
2023/07/28 08:29:16;;;;;;;3.20;2.80;;;;;;;21.82;100.00;92849.75;5015745;28;20125;-63
2023/07/28 08:31:41;;;;;;;25.92;8.38;;;;;;;21.79;100.00;92858.34;5015702;28;20025;-63
2023/07/28 08:34:07;;;;;;;2.80;2.60;;;;;;;22.49;100.00;92844.81;5012698;28;20442;-63
2023/07/28 08:36:33;;;;;;;2.70;2.50;;;;;;;22.83;100.00;92884.88;5012142;28;20029;-63
2023/07/28 08:38:59;;;;;;;19.83;7.78;;;;;;;22.85;100.00;92901.47;5015461;28;20471;-63
2023/07/28 08:41:24;;;;;;;11.48;4.30;;;;;;;23.04;100.00;92916.81;5015444;28;20038;-63
2023/07/28 08:43:51;;;;;;;4.30;2.75;;;;;;;23.51;100.00;92921.56;5047285;28;20115;-63
2023/07/28 08:46:16;;;;;;;3.03;2.05;;;;;;;24.09;100.00;92979.53;5011193;28;20034;-63
2023/07/28 08:48:42;;;;;;;3.90;2.17;;;;;;;23.99;100.00;93066.47;5025466;28;20049;-63
2023/07/28 08:51:10;;;;;;;2.17;2.00;;;;;;;23.88;100.00;93086.50;5015606;28;20043;-63
2023/07/28 08:53:35;;;;;;;3.42;2.40;;;;;;;23.20;100.00;93129.38;5015018;28;20021;-63
2023/07/28 08:56:00;;;;;;;2.38;2.20;;;;;;;22.79;100.00;93124.41;5015631;28;20487;-63
2023/07/28 08:58:26;;;;;;;2.78;2.13;;;;;;;22.64;100.00;93115.41;5015343;28;20026;-63
2023/07/28 09:00:52;;;;;;;2.50;2.15;;;;;;;22.70;100.00;93130.38;5015531;28;20026;-63
2023/07/28 09:03:18;;;;;;;4.10;2.33;;;;;;;22.87;100.00;93056.75;5015197;28;20069;-64
2023/07/28 09:05:48;;;;;;;2.50;2.28;;;;;;;23.52;100.00;93057.41;5014128;28;20635;-64
2023/07/28 09:08:17;;;;;;;2.78;2.25;;;;;;;24.07;100.00;93110.69;5006306;28;20125;-64
2023/07/28 09:10:44;;;;;;;2.35;2.13;;;;;;;24.52;100.00;93131.03;5013341;28;20026;-64
2023/07/28 09:13:11;;;;;;;2.55;2.38;;;;;;;24.41;100.00;93174.22;5013516;28;20025;-64
2023/07/28 09:15:37;;;;;;;2.53;2.33;;;;;;;24.64;100.00;93158.28;5015271;28;20394;-64
2023/07/28 09:18:03;;;;;;;3.00;2.63;;;;;;;24.88;100.00;93125.94;5015035;28;20025;-66
2023/07/28 09:20:35;;;;;;;3.17;2.40;;;;;;;25.35;100.00;93151.25;5013311;28;20621;-65
2023/07/28 09:23:02;;;;;;;3.72;2.20;;;;;;;25.83;100.00;93198.59;5014793;28;20018;-65
2023/07/28 09:25:29;;;;;;;2.42;2.22;;;;;;;26.19;100.00;93221.38;5014724;28;20430;-64
2023/07/28 09:27:55;;;;;;;2.13;2.00;;;;;;;25.90;100.00;93296.03;5015575;28;20049;-65
2023/07/28 09:30:21;;;;;;;2.47;2.28;;;;;;;25.49;100.00;93320.94;5013647;28;20033;-65
2023/07/28 09:32:49;;;;;;;2.78;2.53;;;;;;;25.23;100.00;93268.28;5018647;28;20032;-65
2023/07/28 09:35:14;;;;;;;3.22;2.60;;;;;;;24.86;100.00;93275.28;5014503;28;20034;-64
2023/07/28 09:37:42;;;;;;;3.78;2.30;;;;;;;24.68;100.00;93295.69;5012613;28;20111;-64
2023/07/28 09:40:12;;;;;;;2.88;2.67;;;;;;;25.13;100.00;93239.63;5012339;28;20125;-64
2023/07/28 09:42:41;;;;;;;2.60;2.40;;;;;;;25.56;100.00;93262.91;5020410;28;20478;-65
2023/07/28 09:45:09;;;;;;;2.40;2.20;;;;;;;25.99;100.00;93298.81;5014098;28;20129;-65
2023/07/28 09:47:36;;;;;;;2.72;2.53;;;;;;;26.27;100.00;93321.25;5014815;28;20037;-64
2023/07/28 09:50:08;;;;;;;2.53;2.22;;;;;;;26.21;100.00;93321.66;5023504;28;20021;-64
2023/07/28 09:52:45;;;;;;;2.40;2.30;;;;;;;26.46;100.00;93299.56;5013852;28;20041;-65
2023/07/28 09:55:13;;;;;;;2.97;2.78;;;;;;;26.77;100.00;93303.53;4992791;28;20093;-64
2023/07/28 09:57:46;;;;;;;2.70;2.50;;;;;;;26.99;100.00;93281.25;5011951;28;20045;-63
2023/07/28 10:00:15;;;;;;;2.92;2.65;;;;;;;26.84;100.00;93360.59;5012176;28;20041;-64
2023/07/28 10:02:40;;;;;;;3.40;2.70;;;;;;;26.45;100.00;93359.22;5014032;28;20738;-65
2023/07/28 10:05:07;;;;;;;3.10;2.45;;;;;;;25.73;100.00;93312.75;5019143;28;20025;-64
2023/07/28 10:07:40;;;;;;;2.60;2.40;;;;;;;25.43;100.00;93271.75;5003748;28;20442;-64
2023/07/28 10:10:09;;;;;;;2.83;2.63;;;;;;;25.58;100.00;93274.19;5013818;28;20387;-65
2023/07/28 10:12:49;;;;;;;2.20;2.05;;;;;;;25.38;100.00;93277.19;5013323;28;20025;-64
2023/07/28 10:15:17;;;;;;;3.67;2.70;;;;;;;25.23;100.00;93302.47;5013504;28;20030;-64
2023/07/28 10:17:45;;;;;;;4.20;2.58;;;;;;;25.07;100.00;93324.22;5013658;28;20048;-64
2023/07/28 10:20:49;;;;;;;4.25;2.40;;;;;;;24.89;100.00;93307.81;5013830;28;20116;-64
2023/07/28 10:23:20;;;;;;;4.03;2.13;;;;;;;25.12;100.00;93219.19;4970299;28;20030;-64
2023/07/28 10:25:46;;;;;;;2.20;2.10;;;;;;;25.36;100.00;93194.03;4987281;28;20022;-64
2023/07/28 10:28:31;;;;;;;3.63;2.38;;;;;;;25.30;100.00;93200.59;5002457;28;20050;-63
2023/07/28 10:30:58;;;;;;;2.80;2.25;;;;;;;25.57;100.00;93212.56;5013967;28;20028;-64
2023/07/28 10:33:38;;;;;;;3.17;2.38;;;;;;;25.92;100.00;93221.06;5013381;28;20079;-64
2023/07/28 10:36:23;;;;;;;2.30;2.20;;;;;;;26.51;100.00;93220.44;5013382;28;20026;-64
2023/07/28 10:39:09;;;;;;;;;;;;;;;26.44;100.00;93287.50;5002106;28;20109;-64
2023/07/28 10:41:35;;;;;;;2.40;2.20;;;;;;;25.58;100.00;93332.66;5011223;28;19918;-64
2023/07/28 10:44:01;;;;;;;2.58;2.38;;;;;;;25.53;100.00;93335.44;5013150;28;20514;-64
2023/07/28 10:46:26;;;;;;;2.50;2.33;;;;;;;25.22;100.00;93368.19;5011526;28;20419;-64
2023/07/28 10:48:52;;;;;;;3.10;2.33;;;;;;;25.05;100.00;93363.31;5014128;28;20552;-64
2023/07/28 10:51:28;;;;;;;2.20;2.10;;;;;;;25.07;100.00;93369.19;5015523;28;20033;-64
2023/07/28 10:54:00;;;;;;;2.58;2.30;;;;;;;25.12;100.00;93361.84;5011842;28;20041;-64
2023/07/28 10:56:26;;;;;;;2.40;2.20;;;;;;;25.10;100.00;93385.56;5012960;28;20026;-64
2023/07/28 10:59:04;;;;;;;2.58;2.35;;;;;;;24.96;100.00;93368.53;5011416;28;20018;-64
2023/07/28 11:01:38;;;;;;;2.55;2.45;;;;;;;24.98;100.00;93348.31;5008434;28;20026;-63
2023/07/28 11:04:14;;;;;;;4.07;2.55;;;;;;;25.01;100.00;93353.13;5010012;28;20029;-64
2023/07/28 11:06:42;;;;;;;5.22;2.45;;;;;;;24.97;100.00;93416.66;5012764;28;20033;-64
2023/07/28 11:09:09;;;;;;;3.28;2.47;;;;;;;24.99;100.00;93435.22;5013108;28;20018;-64
2023/07/28 11:11:38;;;;;;;4.72;2.38;;;;;;;25.08;100.00;93432.69;5013596;28;20034;-64
2023/07/28 11:14:08;;;;;;;5.30;2.53;;;;;;;25.34;100.00;93486.22;5016325;28;20467;-64
2023/07/28 11:16:36;;;;;;;3.97;2.78;;;;;;;25.46;100.00;93455.06;5016989;28;20034;-64
2023/07/28 11:19:03;;;;;;;2.55;2.35;;;;;;;25.55;100.00;93446.38;5015852;28;20026;-63
2023/07/28 11:21:28;;;;;;;3.40;2.33;;;;;;;25.83;100.00;93449.22;5017143;28;20026;-64